Time;durP1;ratioP1;P1;durP2;ratioP2;P2;SDS_P1;SDS_P2;PMS_P1;PMS_P2;Temp;Humidity;BMP_temperature;BMP_pressure;BME280_temperature;BME280_humidity;BME280_pressure;Samples;Min_cycle;Max_cycle;Signal;HPM_P1;HPM_P2
2023/12/14 00:02:01;;;;;;;6.82;3.38;;;5.30;99.90;;;;;;4980031;28;20050;-76
2023/12/14 00:04:26;;;;;;;8.80;3.72;;;5.30;99.90;;;;;;4977682;28;20069;-76
2023/12/14 00:06:52;;;;;;;5.78;3.42;;;5.30;99.90;;;;;;4994489;28;20072;-76
2023/12/14 00:09:18;;;;;;;8.23;3.45;;;5.30;99.90;;;;;;4994222;28;20046;-76
2023/12/14 00:11:43;;;;;;;6.28;4.10;;;5.30;99.90;;;;;;4992559;28;20061;-76
2023/12/14 00:14:09;;;;;;;5.72;3.63;;;5.30;99.90;;;;;;4999672;28;20076;-76
2023/12/14 00:16:35;;;;;;;6.50;3.30;;;5.40;99.90;;;;;;4997098;28;20121;-76
2023/12/14 00:19:00;;;;;;;6.25;3.08;;;5.40;99.90;;;;;;4986584;28;20034;-76
2023/12/14 00:21:26;;;;;;;8.38;3.58;;;5.30;99.90;;;;;;5016946;28;20057;-76
2023/12/14 00:23:52;;;;;;;6.47;3.17;;;5.30;99.90;;;;;;4969290;28;20042;-76
2023/12/14 00:26:17;;;;;;;5.80;3.20;;;5.30;99.90;;;;;;4989482;28;20049;-76
2023/12/14 00:28:44;;;;;;;3.78;2.45;;;5.40;99.90;;;;;;4984501;28;20068;-76
2023/12/14 00:31:09;;;;;;;5.00;3.08;;;5.20;99.90;;;;;;5016953;28;20100;-76
2023/12/14 00:33:35;;;;;;;6.57;2.85;;;5.30;99.90;;;;;;5001023;28;20049;-75
2023/12/14 00:36:01;;;;;;;3.80;2.45;;;5.30;99.90;;;;;;5018486;28;20111;-76
2023/12/14 00:38:27;;;;;;;6.45;3.85;;;5.30;99.90;;;;;;5016794;28;20105;-75
2023/12/14 00:40:53;;;;;;;4.05;2.65;;;5.30;99.90;;;;;;5016663;28;20053;-76
2023/12/14 00:43:18;;;;;;;4.50;3.40;;;5.30;99.90;;;;;;5017227;28;20127;-76
2023/12/14 00:45:44;;;;;;;4.38;2.53;;;5.30;99.90;;;;;;5018789;28;20044;-76
2023/12/14 00:48:10;;;;;;;6.18;3.60;;;5.40;99.90;;;;;;4989060;28;20062;-76
2023/12/14 00:50:35;;;;;;;5.95;3.45;;;5.30;99.90;;;;;;5000420;28;20046;-77
2023/12/14 00:53:01;;;;;;;4.68;3.13;;;5.30;99.90;;;;;;4991924;28;20387;-76
2023/12/14 00:55:27;;;;;;;4.97;3.10;;;5.30;99.90;;;;;;4991939;28;20405;-76
2023/12/14 00:57:53;;;;;;;4.65;2.40;;;5.30;99.90;;;;;;4962664;28;20098;-76
2023/12/14 01:00:19;;;;;;;5.63;2.58;;;5.30;99.90;;;;;;4977392;28;20044;-76
2023/12/14 01:02:44;;;;;;;7.75;3.63;;;5.30;99.90;;;;;;5009375;28;20106;-76
2023/12/14 01:05:10;;;;;;;4.97;2.65;;;5.30;99.90;;;;;;4969776;28;20049;-76
2023/12/14 01:07:36;;;;;;;6.22;3.58;;;5.20;99.90;;;;;;4993731;28;21314;-76
2023/12/14 01:10:02;;;;;;;5.18;2.42;;;5.20;99.90;;;;;;4992719;28;20053;-75
2023/12/14 01:12:28;;;;;;;5.35;2.67;;;5.20;99.90;;;;;;4989078;28;20052;-76
2023/12/14 01:14:54;;;;;;;4.53;2.63;;;5.20;99.90;;;;;;4998771;28;20050;-76
2023/12/14 01:17:19;;;;;;;3.60;2.15;;;5.20;99.90;;;;;;5023464;28;20512;-76
2023/12/14 01:19:45;;;;;;;3.67;2.42;;;5.20;99.90;;;;;;4999981;28;20045;-76
2023/12/14 01:22:11;;;;;;;4.15;2.53;;;5.20;99.90;;;;;;4992007;28;20038;-76
2023/12/14 01:24:36;;;;;;;5.38;3.03;;;5.20;99.90;;;;;;4978808;28;20532;-76
2023/12/14 01:27:02;;;;;;;3.72;2.40;;;5.20;99.90;;;;;;4994443;28;20043;-75
2023/12/14 01:29:28;;;;;;;5.82;3.03;;;5.20;99.90;;;;;;4992896;28;20049;-76
2023/12/14 01:31:54;;;;;;;7.65;3.97;;;5.20;99.90;;;;;;4994410;28;20038;-75
2023/12/14 01:34:19;;;;;;;5.72;3.33;;;5.20;99.90;;;;;;4992494;28;20075;-76
2023/12/14 01:36:45;;;;;;;4.68;2.53;;;5.20;99.90;;;;;;4990267;28;20042;-76
2023/12/14 01:39:11;;;;;;;5.05;2.90;;;5.10;99.90;;;;;;4978799;28;20049;-76
2023/12/14 01:41:37;;;;;;;4.97;3.08;;;5.10;99.90;;;;;;5043163;28;20042;-76
2023/12/14 01:44:02;;;;;;;4.40;2.88;;;5.20;99.90;;;;;;4977367;28;20502;-76
2023/12/14 01:46:28;;;;;;;10.52;3.20;;;5.10;99.90;;;;;;4988217;28;20042;-76
2023/12/14 01:48:54;;;;;;;5.43;3.13;;;5.10;99.90;;;;;;5006053;28;20061;-75
2023/12/14 01:51:19;;;;;;;4.72;3.40;;;5.10;99.90;;;;;;4995959;28;20425;-76
2023/12/14 01:53:45;;;;;;;5.75;2.80;;;5.10;99.90;;;;;;4979052;28;20083;-75
2023/12/14 01:56:11;;;;;;;10.57;2.92;;;5.10;99.90;;;;;;4993988;28;20041;-76
2023/12/14 01:58:37;;;;;;;4.07;2.20;;;5.10;99.90;;;;;;4982135;28;20042;-76
2023/12/14 02:01:19;;;;;;;3.50;2.22;;;5.10;99.90;;;;;;4987074;28;20100;-75
2023/12/14 02:03:51;;;;;;;6.32;3.15;;;5.10;99.90;;;;;;5009885;28;20141;-76
2023/12/14 02:06:16;;;;;;;7.40;3.40;;;5.10;99.90;;;;;;5008923;28;20506;-76
2023/12/14 02:08:42;;;;;;;6.15;3.47;;;5.00;99.90;;;;;;4997245;28;20049;-75
2023/12/14 02:11:08;;;;;;;4.68;3.35;;;5.00;99.90;;;;;;4988773;28;20065;-75
2023/12/14 02:13:34;;;;;;;6.38;3.10;;;5.00;99.90;;;;;;4995473;28;20518;-76
2023/12/14 02:16:00;;;;;;;3.58;2.17;;;5.00;99.90;;;;;;4994937;28;20038;-75
2023/12/14 02:18:26;;;;;;;4.50;2.95;;;5.00;99.90;;;;;;4982949;28;20147;-76
2023/12/14 02:20:52;;;;;;;4.30;2.17;;;5.00;99.90;;;;;;4984718;28;20055;-75
2023/12/14 02:23:18;;;;;;;7.57;2.95;;;4.90;99.90;;;;;;4987245;28;20513;-75
2023/12/14 02:25:43;;;;;;;5.50;3.13;;;4.90;99.90;;;;;;4983832;28;20052;-75
2023/12/14 02:28:09;;;;;;;3.60;2.03;;;4.90;99.90;;;;;;4987318;28;20030;-76
2023/12/14 02:30:35;;;;;;;4.53;2.40;;;4.90;99.90;;;;;;5001256;28;20508;-75
2023/12/14 02:33:01;;;;;;;6.47;3.22;;;4.90;99.90;;;;;;4986907;28;20061;-75
2023/12/14 02:35:26;;;;;;;5.78;3.20;;;5.00;99.90;;;;;;4968150;28;20085;-75
2023/12/14 02:37:52;;;;;;;7.65;2.97;;;4.90;99.90;;;;;;5017939;28;20508;-76
2023/12/14 02:40:18;;;;;;;3.65;2.42;;;4.90;99.90;;;;;;5003330;28;20042;-75
2023/12/14 02:42:44;;;;;;;6.03;2.50;;;4.90;99.90;;;;;;4985088;28;20053;-75
2023/12/14 02:45:10;;;;;;;4.60;2.65;;;4.90;99.90;;;;;;4968765;28;20050;-75
2023/12/14 02:47:36;;;;;;;4.78;2.35;;;4.90;99.90;;;;;;5022610;28;20553;-75
2023/12/14 02:50:02;;;;;;;4.03;2.42;;;4.90;99.90;;;;;;5018820;28;20049;-76
2023/12/14 02:52:28;;;;;;;7.35;2.83;;;4.90;99.90;;;;;;4998508;28;20085;-75
2023/12/14 02:54:53;;;;;;;7.53;3.40;;;4.90;99.90;;;;;;4969883;28;20046;-75
2023/12/14 02:57:19;;;;;;;4.03;2.38;;;4.90;99.90;;;;;;4995891;28;20042;-75
2023/12/14 02:59:45;;;;;;;7.85;2.80;;;4.90;99.90;;;;;;4994453;28;20049;-75
2023/12/14 03:02:11;;;;;;;6.13;3.03;;;4.80;99.90;;;;;;5013147;28;20489;-75
2023/12/14 03:04:40;;;;;;;6.53;2.58;;;4.90;99.90;;;;;;4995252;28;20038;-74
2023/12/14 03:07:06;;;;;;;7.72;2.92;;;4.90;99.90;;;;;;4996042;28;20038;-75
2023/12/14 03:09:32;;;;;;;9.05;2.75;;;4.80;99.90;;;;;;4994618;28;20038;-75
2023/12/14 03:12:01;;;;;;;5.72;2.80;;;4.80;99.90;;;;;;5010530;28;20088;-75
2023/12/14 03:14:32;;;;;;;5.03;2.53;;;4.80;99.90;;;;;;4978711;28;20573;-76
2023/12/14 03:16:58;;;;;;;7.25;2.47;;;4.80;99.90;;;;;;4993409;28;20048;-76
2023/12/14 03:19:23;;;;;;;4.50;2.03;;;4.80;99.90;;;;;;4983454;28;20472;-76
2023/12/14 03:21:49;;;;;;;5.35;2.45;;;4.80;99.90;;;;;;4982121;28;20053;-75
2023/12/14 03:24:15;;;;;;;4.70;2.53;;;4.80;99.90;;;;;;4998644;28;20291;-75
2023/12/14 03:26:40;;;;;;;5.18;3.13;;;4.80;99.90;;;;;;4981106;28;20046;-75
2023/12/14 03:29:07;;;;;;;9.13;3.05;;;4.80;99.90;;;;;;4994855;28;20102;-75
2023/12/14 03:31:34;;;;;;;9.27;3.92;;;4.80;99.90;;;;;;4982059;28;20094;-75
2023/12/14 03:33:59;;;;;;;5.75;3.05;;;4.70;99.90;;;;;;4977422;28;20053;-75
2023/12/14 03:36:26;;;;;;;7.03;2.88;;;4.80;99.90;;;;;;4979869;28;20042;-75
2023/12/14 03:38:52;;;;;;;6.22;4.00;;;4.80;99.90;;;;;;4991363;28;20051;-75
2023/12/14 03:41:18;;;;;;;7.75;2.85;;;4.80;99.90;;;;;;4973244;28;20150;-75
2023/12/14 03:43:44;;;;;;;4.85;2.65;;;4.80;99.90;;;;;;4977723;28;20042;-75
2023/12/14 03:46:10;;;;;;;5.95;2.75;;;4.80;99.90;;;;;;4980047;28;20073;-75
2023/12/14 03:48:35;;;;;;;4.43;2.80;;;4.80;99.90;;;;;;4979652;28;20049;-75
2023/12/14 03:51:05;;;;;;;6.35;2.85;;;4.80;99.90;;;;;;4997252;28;20046;-75
2023/12/14 03:53:31;;;;;;;10.23;3.30;;;4.80;99.90;;;;;;4994377;28;20111;-75
2023/12/14 03:56:00;;;;;;;4.63;2.80;;;4.70;99.90;;;;;;5008336;28;20057;-75
2023/12/14 03:58:26;;;;;;;9.82;3.65;;;4.80;99.90;;;;;;4996117;28;20041;-75
2023/12/14 04:00:52;;;;;;;5.45;2.70;;;4.80;99.90;;;;;;4994060;28;20089;-75
2023/12/14 04:03:18;;;;;;;4.82;2.63;;;4.80;99.90;;;;;;4985017;28;20054;-75
2023/12/14 04:05:46;;;;;;;5.53;2.63;;;4.70;99.90;;;;;;4979457;28;20165;-75
2023/12/14 04:08:12;;;;;;;7.00;3.28;;;4.70;99.90;;;;;;4994404;28;20045;-75
2023/12/14 04:10:37;;;;;;;5.32;3.10;;;4.70;99.90;;;;;;5011679;28;20054;-75
2023/12/14 04:13:03;;;;;;;5.68;2.70;;;4.70;99.90;;;;;;4975050;28;20080;-75
2023/12/14 04:15:29;;;;;;;3.65;2.15;;;4.70;99.90;;;;;;4993011;28;20091;-75
2023/12/14 04:17:55;;;;;;;7.70;2.22;;;4.70;99.90;;;;;;4975237;28;20069;-75
2023/12/14 04:20:20;;;;;;;5.68;2.15;;;4.70;99.90;;;;;;4983012;28;20050;-75
2023/12/14 04:22:47;;;;;;;4.75;2.20;;;4.70;99.90;;;;;;4979482;28;20083;-75
2023/12/14 04:25:12;;;;;;;5.10;2.28;;;4.70;99.90;;;;;;4983365;28;20041;-75
2023/12/14 04:27:38;;;;;;;8.32;3.00;;;4.70;99.90;;;;;;5001597;28;20160;-75
2023/12/14 04:30:05;;;;;;;6.18;3.17;;;4.70;99.90;;;;;;5000553;28;20133;-75
2023/12/14 04:32:31;;;;;;;4.68;2.08;;;4.70;99.90;;;;;;5054227;28;20042;-75
2023/12/14 04:34:56;;;;;;;5.38;2.17;;;4.70;99.90;;;;;;5000065;28;20091;-75
2023/12/14 04:37:22;;;;;;;5.80;2.30;;;4.70;99.90;;;;;;5017941;28;20057;-74
2023/12/14 04:39:48;;;;;;;7.82;2.30;;;4.70;99.90;;;;;;4983241;28;20042;-75
2023/12/14 04:42:13;;;;;;;7.03;2.88;;;4.80;99.90;;;;;;5000749;28;20046;-75
2023/12/14 04:44:39;;;;;;;3.55;2.25;;;4.70;99.90;;;;;;4970216;28;20053;-75
2023/12/14 04:47:05;;;;;;;4.45;2.20;;;4.80;99.90;;;;;;4999490;28;20581;-75
2023/12/14 04:49:31;;;;;;;8.63;3.00;;;4.80;99.90;;;;;;5001179;28;20049;-74
2023/12/14 04:51:56;;;;;;;6.65;2.05;;;4.80;99.90;;;;;;4967707;28;20440;-75
2023/12/14 04:54:22;;;;;;;3.58;1.77;;;4.80;99.90;;;;;;4999847;28;20050;-75
2023/12/14 04:56:48;;;;;;;4.78;1.80;;;4.80;99.90;;;;;;5001308;28;20056;-75
2023/12/14 04:59:13;;;;;;;4.47;2.50;;;4.80;99.90;;;;;;5011829;28;20121;-75
2023/12/14 05:01:39;;;;;;;4.10;2.63;;;4.80;99.90;;;;;;4977838;28;20054;-75
2023/12/14 05:04:05;;;;;;;6.57;2.58;;;4.80;99.90;;;;;;4991872;28;20050;-75
2023/12/14 05:06:33;;;;;;;4.82;2.13;;;4.80;99.90;;;;;;4985892;28;20077;-75
2023/12/14 05:08:58;;;;;;;5.32;2.60;;;4.80;99.90;;;;;;5008424;28;20057;-75
2023/12/14 05:11:24;;;;;;;8.10;3.28;;;4.80;99.90;;;;;;4978812;28;20057;-75
2023/12/14 05:13:50;;;;;;;9.52;4.32;;;4.80;99.90;;;;;;4989132;28;20060;-75
2023/12/14 05:16:16;;;;;;;7.40;2.65;;;4.80;99.90;;;;;;4982869;28;20549;-75
2023/12/14 05:18:42;;;;;;;5.35;3.17;;;4.80;99.90;;;;;;5016923;28;20050;-75
2023/12/14 05:21:08;;;;;;;7.68;3.03;;;4.80;99.90;;;;;;4982610;28;20052;-75
2023/12/14 05:23:33;;;;;;;5.32;2.80;;;4.80;99.90;;;;;;4983996;28;20037;-74
2023/12/14 05:26:00;;;;;;;7.63;3.08;;;4.80;99.90;;;;;;4984336;28;20054;-75
2023/12/14 05:28:25;;;;;;;8.35;3.42;;;4.80;99.90;;;;;;5003906;28;20071;-75
2023/12/14 05:30:51;;;;;;;6.05;3.00;;;4.80;99.90;;;;;;5013454;28;20105;-75
2023/12/14 05:33:17;;;;;;;6.25;2.97;;;4.80;99.90;;;;;;5004678;28;20525;-75
2023/12/14 05:35:43;;;;;;;8.40;3.00;;;4.80;99.90;;;;;;4995310;28;20087;-75
2023/12/14 05:38:08;;;;;;;4.72;2.72;;;4.80;99.90;;;;;;4972348;28;20058;-75
2023/12/14 05:40:34;;;;;;;4.40;2.83;;;4.80;99.90;;;;;;4982248;28;20131;-75
2023/12/14 05:43:00;;;;;;;5.28;2.65;;;4.80;99.90;;;;;;5003170;28;20038;-75
2023/12/14 05:45:26;;;;;;;10.70;4.07;;;4.80;99.90;;;;;;4983395;28;20046;-75
2023/12/14 05:47:51;;;;;;;8.85;3.08;;;4.80;99.90;;;;;;4982790;28;20042;-75
2023/12/14 05:50:17;;;;;;;6.32;3.65;;;4.80;99.90;;;;;;5000801;28;20045;-75
2023/12/14 05:52:43;;;;;;;20.65;4.40;;;4.80;99.90;;;;;;4966703;28;20046;-75
2023/12/14 05:55:10;;;;;;;6.07;3.40;;;4.80;99.90;;;;;;4976828;28;20417;-75
2023/12/14 05:57:36;;;;;;;7.18;2.80;;;4.80;99.90;;;;;;5014440;28;20066;-75
2023/12/14 06:00:03;;;;;;;10.80;3.13;;;4.80;99.90;;;;;;4996491;28;20056;-75
2023/12/14 06:02:31;;;;;;;4.55;2.67;;;4.80;99.90;;;;;;4996830;28;20038;-75
2023/12/14 06:04:57;;;;;;;10.90;3.58;;;4.80;99.90;;;;;;4996552;28;20053;-75
2023/12/14 06:07:23;;;;;;;9.38;3.35;;;4.80;99.90;;;;;;4997482;28;20118;-75
2023/12/14 06:09:49;;;;;;;8.10;3.25;;;4.80;99.90;;;;;;5084381;28;20329;-75
2023/12/14 06:12:15;;;;;;;10.02;3.53;;;4.80;99.90;;;;;;4994792;28;20060;-75
2023/12/14 06:14:40;;;;;;;7.05;2.63;;;4.80;99.90;;;;;;5012027;28;20054;-75
2023/12/14 06:17:06;;;;;;;9.27;4.07;;;4.70;99.90;;;;;;4994670;28;20048;-75
2023/12/14 06:19:32;;;;;;;6.43;3.35;;;4.80;99.90;;;;;;4981899;28;20045;-75
2023/12/14 06:21:58;;;;;;;6.38;2.97;;;4.70;99.90;;;;;;4982266;28;20124;-74
2023/12/14 06:24:24;;;;;;;10.13;3.72;;;4.70;99.90;;;;;;5018883;28;20230;-75
2023/12/14 06:26:49;;;;;;;8.43;2.97;;;4.80;99.90;;;;;;4986555;28;20046;-74
2023/12/14 06:29:15;;;;;;;9.50;3.17;;;4.80;99.90;;;;;;5019991;28;20154;-75
2023/12/14 06:31:41;;;;;;;8.23;2.15;;;4.80;99.90;;;;;;5003344;28;20034;-75
2023/12/14 06:34:07;;;;;;;6.53;3.03;;;4.70;99.90;;;;;;5001445;28;20075;-75
2023/12/14 06:36:34;;;;;;;8.23;2.78;;;4.80;99.90;;;;;;5002253;28;20034;-75
2023/12/14 06:39:00;;;;;;;5.32;2.78;;;4.70;99.90;;;;;;5014382;28;20042;-75
2023/12/14 06:41:27;;;;;;;6.35;3.15;;;4.70;99.90;;;;;;5002287;28;20081;-75
2023/12/14 06:43:54;;;;;;;8.98;3.08;;;4.70;99.90;;;;;;4986864;28;20486;-75
2023/12/14 06:46:20;;;;;;;6.80;3.58;;;4.70;99.90;;;;;;4985674;28;20045;-75
2023/12/14 06:48:46;;;;;;;13.10;3.65;;;4.70;99.90;;;;;;5003257;28;20071;-75
2023/12/14 06:51:12;;;;;;;7.18;2.97;;;4.70;99.90;;;;;;4997019;28;20065;-75
2023/12/14 06:53:41;;;;;;;10.25;3.70;;;4.70;99.90;;;;;;4981113;28;20042;-75
2023/12/14 06:56:11;;;;;;;5.47;2.88;;;4.70;99.90;;;;;;4993109;28;20058;-75
2023/12/14 06:58:38;;;;;;;6.95;2.83;;;4.70;99.90;;;;;;4997123;28;20083;-75
2023/12/14 07:01:04;;;;;;;7.63;3.15;;;4.70;99.90;;;;;;5013750;28;20054;-75
2023/12/14 07:03:30;;;;;;;5.45;2.70;;;4.70;99.90;;;;;;5010645;28;20037;-75
2023/12/14 07:05:56;;;;;;;9.27;3.15;;;4.80;99.90;;;;;;4980684;28;20052;-75
2023/12/14 07:08:21;;;;;;;8.88;2.40;;;4.80;99.90;;;;;;4960405;28;20565;-75
2023/12/14 07:10:47;;;;;;;4.65;3.15;;;4.80;99.90;;;;;;4996545;28;20514;-73
2023/12/14 07:13:13;;;;;;;8.98;3.00;;;4.80;99.90;;;;;;4977936;28;20038;-75
2023/12/14 07:15:38;;;;;;;6.57;3.22;;;4.70;99.90;;;;;;4992269;28;20413;-75
2023/12/14 07:18:04;;;;;;;9.30;3.78;;;4.70;99.90;;;;;;4983052;28;20042;-75
2023/12/14 07:20:30;;;;;;;7.13;3.60;;;4.70;99.90;;;;;;5000961;28;20042;-75
2023/12/14 07:22:55;;;;;;;7.40;3.53;;;4.70;99.90;;;;;;4985523;28;20054;-75
2023/12/14 07:25:21;;;;;;;7.15;3.08;;;4.80;99.90;;;;;;5000552;28;20062;-74
2023/12/14 07:27:47;;;;;;;9.88;4.10;;;4.70;99.90;;;;;;4970116;28;20081;-75
2023/12/14 07:30:13;;;;;;;6.78;3.55;;;4.70;99.90;;;;;;4986575;28;20050;-75
2023/12/14 07:32:39;;;;;;;8.57;3.40;;;4.70;99.90;;;;;;5018948;28;20030;-76
2023/12/14 07:35:06;;;;;;;7.18;3.33;;;4.70;99.90;;;;;;5001433;28;20060;-76
2023/12/14 07:37:32;;;;;;;6.35;3.72;;;4.70;99.90;;;;;;5001513;28;20050;-75
2023/12/14 07:40:00;;;;;;;6.78;2.90;;;4.70;99.90;;;;;;5002511;28;20101;-75
2023/12/14 07:42:26;;;;;;;11.63;3.17;;;4.70;99.90;;;;;;5000204;28;20050;-75
2023/12/14 07:44:52;;;;;;;11.55;3.15;;;4.70;99.90;;;;;;4985296;28;20103;-75
2023/12/14 07:47:18;;;;;;;4.97;2.85;;;4.80;99.90;;;;;;4976468;28;20053;-75
2023/12/14 07:49:44;;;;;;;6.57;3.60;;;4.70;99.90;;;;;;4985207;28;20038;-76
2023/12/14 07:52:09;;;;;;;7.20;3.40;;;4.70;99.90;;;;;;4998137;28;20038;-76
2023/12/14 07:54:36;;;;;;;7.65;2.95;;;4.70;99.90;;;;;;4992746;28;20052;-75
2023/12/14 07:57:02;;;;;;;9.35;3.30;;;4.70;99.90;;;;;;4981168;28;20065;-76
2023/12/14 07:59:29;;;;;;;5.45;2.90;;;4.80;99.90;;;;;;5014297;28;20049;-75
2023/12/14 08:01:55;;;;;;;7.80;3.45;;;4.70;99.90;;;;;;5014929;28;20050;-75
2023/12/14 08:04:21;;;;;;;8.13;3.47;;;4.70;99.90;;;;;;4964049;28;20081;-76
2023/12/14 08:06:46;;;;;;;6.72;3.65;;;4.70;99.90;;;;;;5000106;28;20050;-76
2023/12/14 08:09:12;;;;;;;8.13;3.50;;;4.70;99.90;;;;;;4984674;28;20026;-75
2023/12/14 08:11:38;;;;;;;6.32;2.90;;;4.70;99.90;;;;;;4981278;28;20080;-76
2023/12/14 08:14:03;;;;;;;4.60;2.40;;;4.70;99.90;;;;;;4985590;28;20241;-75
2023/12/14 08:16:29;;;;;;;7.97;4.35;;;4.70;99.90;;;;;;5000250;28;20042;-76
2023/12/14 08:18:55;;;;;;;8.60;3.53;;;4.70;99.90;;;;;;4985688;28;20117;-76
2023/12/14 08:21:21;;;;;;;6.50;3.22;;;4.70;99.90;;;;;;4982119;28;20046;-75
2023/12/14 08:23:46;;;;;;;4.85;3.13;;;4.80;99.90;;;;;;4997405;28;20150;-75
2023/12/14 08:26:13;;;;;;;7.97;2.78;;;4.80;99.90;;;;;;5015449;28;20053;-76
2023/12/14 08:28:42;;;;;;;5.88;3.30;;;4.80;99.90;;;;;;4984988;28;20053;-75
2023/12/14 08:31:09;;;;;;;6.32;3.45;;;4.70;99.90;;;;;;5016254;28;20042;-76
2023/12/14 08:33:35;;;;;;;7.97;3.40;;;4.70;99.90;;;;;;5011983;28;20496;-75
2023/12/14 08:36:01;;;;;;;10.68;3.80;;;4.80;99.90;;;;;;5000421;28;20424;-75
2023/12/14 08:38:26;;;;;;;6.47;2.60;;;4.70;99.90;;;;;;5020580;28;20046;-75
2023/12/14 08:40:52;;;;;;;8.25;3.40;;;4.80;99.90;;;;;;4982521;28;20048;-75
2023/12/14 08:43:18;;;;;;;5.82;3.03;;;4.80;99.90;;;;;;4965526;28;20054;-75
2023/12/14 08:45:44;;;;;;;7.32;3.08;;;4.80;99.90;;;;;;4999015;28;20048;-76
2023/12/14 08:48:09;;;;;;;7.38;2.88;;;4.80;99.90;;;;;;5001138;28;20172;-75
2023/12/14 08:50:35;;;;;;;5.78;2.75;;;4.80;99.90;;;;;;4969654;28;20046;-75
2023/12/14 08:53:01;;;;;;;4.93;3.10;;;4.80;99.90;;;;;;4983533;28;20512;-75
2023/12/14 08:55:27;;;;;;;8.57;4.13;;;4.80;99.90;;;;;;4970917;28;20045;-76
2023/12/14 08:57:53;;;;;;;7.72;3.33;;;4.90;99.90;;;;;;5000675;28;20067;-75
2023/12/14 09:00:19;;;;;;;7.60;3.35;;;4.90;99.90;;;;;;4979816;28;20045;-76
2023/12/14 09:02:45;;;;;;;8.13;3.65;;;4.90;99.90;;;;;;4978701;28;20076;-76
2023/12/14 09:05:16;;;;;;;6.90;3.45;;;4.90;99.90;;;;;;4998890;28;20045;-77
2023/12/14 09:07:42;;;;;;;11.88;6.07;;;4.90;99.90;;;;;;4980207;28;20698;-77
2023/12/14 09:10:08;;;;;;;8.80;4.07;;;4.90;99.90;;;;;;4978777;28;20070;-77
2023/12/14 09:12:35;;;;;;;10.43;4.55;;;5.00;99.90;;;;;;4971277;28;20432;-77
2023/12/14 09:15:01;;;;;;;10.15;4.53;;;5.10;99.90;;;;;;4999839;28;20045;-77
2023/12/14 09:17:32;;;;;;;8.13;4.88;;;5.10;99.90;;;;;;4999438;28;20136;-76
2023/12/14 09:19:59;;;;;;;11.37;4.87;;;5.20;99.90;;;;;;5000913;28;20054;-77
2023/12/14 09:22:25;;;;;;;14.43;4.82;;;5.20;99.90;;;;;;4985513;28;20042;-77
2023/12/14 09:24:50;;;;;;;7.55;3.40;;;5.30;99.90;;;;;;4997593;28;20069;-77
2023/12/14 09:27:17;;;;;;;10.18;4.38;;;5.30;99.90;;;;;;4981777;28;20497;-77
2023/12/14 09:29:42;;;;;;;9.30;4.80;;;5.30;99.90;;;;;;4966824;28;20046;-77
2023/12/14 09:32:08;;;;;;;12.52;4.80;;;5.30;99.90;;;;;;4977787;28;20042;-77
2023/12/14 09:34:34;;;;;;;6.78;4.38;;;5.40;99.90;;;;;;5015412;28;20056;-77
2023/12/14 09:37:00;;;;;;;8.07;4.20;;;5.40;99.90;;;;;;4997382;28;20041;-77
2023/12/14 09:39:27;;;;;;;10.40;3.95;;;5.40;99.90;;;;;;4983915;28;20048;-76
2023/12/14 09:42:04;;;;;;;9.27;3.30;;;5.40;99.90;;;;;;4998008;28;20042;-77
2023/12/14 09:44:30;;;;;;;6.50;3.20;;;5.40;99.90;;;;;;4998964;28;20052;-77
2023/12/14 09:46:59;;;;;;;10.13;3.60;;;5.50;99.90;;;;;;4997233;28;20117;-77
2023/12/14 09:49:29;;;;;;;9.15;3.47;;;5.40;99.90;;;;;;5016670;28;20042;-77
2023/12/14 09:51:56;;;;;;;4.38;2.67;;;5.50;99.90;;;;;;4999538;28;20417;-77
2023/12/14 09:54:22;;;;;;;8.35;3.38;;;5.50;99.90;;;;;;5016522;28;20112;-77
2023/12/14 09:56:49;;;;;;;6.68;3.08;;;5.40;99.90;;;;;;5012641;28;20038;-77
2023/12/14 09:59:15;;;;;;;7.55;3.85;;;5.50;99.90;;;;;;4998784;28;20060;-77
2023/12/14 10:01:41;;;;;;;6.03;3.13;;;5.50;99.90;;;;;;5000386;28;20050;-76
2023/12/14 10:04:13;;;;;;;11.45;3.65;;;5.50;99.90;;;;;;4998912;28;20039;-77
2023/12/14 10:06:40;;;;;;;6.05;3.00;;;5.50;99.90;;;;;;4999558;28;20070;-77
2023/12/14 10:09:09;;;;;;;7.43;3.53;;;5.50;99.90;;;;;;4999473;28;20042;-77
2023/12/14 10:11:36;;;;;;;7.30;3.42;;;5.50;99.90;;;;;;5015784;28;20058;-77
2023/12/14 10:14:04;;;;;;;8.38;3.55;;;5.50;99.90;;;;;;5018156;28;20106;-77
2023/12/14 10:16:33;;;;;;;6.78;4.13;;;5.60;99.90;;;;;;5002359;28;20046;-77
2023/12/14 10:19:00;;;;;;;10.52;3.72;;;5.60;99.90;;;;;;5013403;28;20045;-77
2023/12/14 10:21:27;;;;;;;6.65;2.97;;;5.60;99.90;;;;;;5001675;28;20041;-77
2023/12/14 10:23:55;;;;;;;10.93;3.80;;;5.60;99.90;;;;;;4986014;28;20052;-76
2023/12/14 10:26:23;;;;;;;10.13;3.47;;;5.60;99.90;;;;;;5018497;28;20050;-77
2023/12/14 10:28:51;;;;;;;5.38;3.25;;;5.60;99.90;;;;;;5006554;28;20045;-76
2023/12/14 10:31:19;;;;;;;10.55;4.00;;;5.60;99.90;;;;;;5017480;28;20050;-77
2023/12/14 10:33:45;;;;;;;10.23;3.72;;;5.60;99.90;;;;;;4984460;28;20049;-77
2023/12/14 10:36:14;;;;;;;7.22;3.88;;;5.60;99.90;;;;;;5006302;28;20050;-76
2023/12/14 10:38:41;;;;;;;8.23;3.70;;;5.60;99.90;;;;;;4992216;28;20076;-77
2023/12/14 10:41:08;;;;;;;6.78;3.28;;;5.60;99.90;;;;;;4985146;28;20107;-76
2023/12/14 10:43:36;;;;;;;7.45;2.97;;;5.60;99.90;;;;;;4984947;28;20397;-76
2023/12/14 10:46:07;;;;;;;9.73;3.70;;;5.60;99.90;;;;;;4991680;28;20030;-77
2023/12/14 10:48:34;;;;;;;9.98;4.30;;;5.70;99.90;;;;;;5017111;28;20518;-77
2023/12/14 10:51:02;;;;;;;6.40;3.33;;;5.70;99.90;;;;;;4984284;28;20041;-77
2023/12/14 10:53:29;;;;;;;12.10;3.50;;;5.70;99.90;;;;;;5017834;28;20513;-77
2023/12/14 10:55:58;;;;;;;12.75;3.65;;;5.70;99.90;;;;;;4980478;28;20040;-77
2023/12/14 10:58:24;;;;;;;10.77;4.40;;;5.70;99.90;;;;;;4983100;28;20072;-77
2023/12/14 11:01:02;;;;;;;6.55;3.70;;;5.70;99.90;;;;;;4958627;28;20046;-77
2023/12/14 11:03:34;;;;;;;6.90;3.38;;;5.70;99.90;;;;;;4983920;28;20038;-76
2023/12/14 11:06:00;;;;;;;10.32;3.58;;;5.70;99.90;;;;;;5018241;28;20077;-77
2023/12/14 11:08:26;;;;;;;7.82;3.95;;;5.70;99.90;;;;;;4967232;28;20050;-77
2023/12/14 11:11:10;;;;;;;6.15;3.53;;;5.70;99.90;;;;;;4984884;28;20034;-77
2023/12/14 11:13:38;;;;;;;5.78;3.33;;;5.80;99.90;;;;;;5000708;28;20061;-77
2023/12/14 11:16:04;;;;;;;4.30;3.35;;;5.80;99.90;;;;;;4984817;28;20050;-76
2023/12/14 11:18:30;;;;;;;10.52;3.42;;;5.90;99.90;;;;;;5001276;28;20061;-76
2023/12/14 11:21:01;;;;;;;7.00;3.38;;;5.90;99.90;;;;;;4983088;28;20030;-76
2023/12/14 11:23:30;;;;;;;5.10;3.00;;;6.00;99.90;;;;;;4976288;28;20053;-77
2023/12/14 11:26:04;;;;;;;9.07;3.40;;;6.00;99.90;;;;;;4999189;28;20049;-76
2023/12/14 11:28:35;;;;;;;9.40;3.28;;;6.00;99.90;;;;;;5007450;28;20371;-77
2023/12/14 11:31:02;;;;;;;7.00;3.33;;;6.10;99.90;;;;;;4985675;28;20053;-76
2023/12/14 11:33:28;;;;;;;5.28;3.40;;;6.20;99.90;;;;;;5000990;28;20339;-77
2023/12/14 11:35:56;;;;;;;9.63;3.78;;;6.20;99.90;;;;;;5002500;28;20033;-76
2023/12/14 11:38:24;;;;;;;6.03;3.20;;;6.20;99.90;;;;;;4983238;28;20056;-76
2023/12/14 11:40:50;;;;;;;9.25;3.55;;;6.20;99.90;;;;;;5000754;28;20075;-77
2023/12/14 11:43:16;;;;;;;6.47;3.30;;;6.30;99.90;;;;;;5011550;28;20049;-77
2023/12/14 11:45:42;;;;;;;8.68;3.58;;;6.30;99.90;;;;;;5001681;28;20064;-76
2023/12/14 11:48:12;;;;;;;8.88;3.53;;;6.30;99.90;;;;;;5002241;28;20042;-76
2023/12/14 11:50:39;;;;;;;8.50;3.47;;;6.30;99.90;;;;;;4999892;28;20080;-77
2023/12/14 11:53:05;;;;;;;5.93;2.78;;;6.40;99.90;;;;;;5014027;28;20079;-77
2023/12/14 11:55:32;;;;;;;4.95;2.75;;;6.40;99.90;;;;;;4983928;28;20049;-77
2023/12/14 11:57:58;;;;;;;8.45;3.13;;;6.40;99.90;;;;;;5002253;28;20068;-76
2023/12/14 12:00:26;;;;;;;6.18;2.75;;;6.40;99.90;;;;;;5000603;28;20049;-76
2023/12/14 12:03:06;;;;;;;9.88;3.47;;;6.40;99.90;;;;;;4997436;28;20498;-76
2023/12/14 12:05:46;;;;;;;8.13;3.58;;;6.40;99.90;;;;;;5018553;28;20046;-77
2023/12/14 12:08:13;;;;;;;11.88;3.42;;;6.40;99.90;;;;;;5000433;28;20081;-76
2023/12/14 12:10:40;;;;;;;7.43;3.00;;;6.50;99.90;;;;;;4985942;28;20046;-76
2023/12/14 12:13:16;;;;;;;11.10;3.72;;;6.50;99.90;;;;;;4983499;28;20068;-76
2023/12/14 12:15:42;;;;;;;9.05;3.45;;;6.50;99.90;;;;;;5017666;28;20044;-77
2023/12/14 12:18:10;;;;;;;4.68;3.45;;;6.40;99.90;;;;;;4985523;28;20038;-76
2023/12/14 12:20:36;;;;;;;6.22;3.20;;;6.50;99.90;;;;;;5000324;28;20471;-76
2023/12/14 12:23:02;;;;;;;6.82;3.30;;;6.50;99.90;;;;;;5017722;28;20069;-76
2023/12/14 12:25:28;;;;;;;7.47;3.40;;;6.60;99.90;;;;;;4999327;28;20421;-76
2023/12/14 12:27:57;;;;;;;7.10;2.92;;;6.60;99.90;;;;;;5001948;28;20048;-76
2023/12/14 12:30:24;;;;;;;6.07;3.25;;;6.60;99.90;;;;;;5016955;28;20449;-76
2023/12/14 12:32:53;;;;;;;11.63;3.08;;;6.60;99.90;;;;;;4995848;28;20124;-76
2023/12/14 12:35:19;;;;;;;6.15;3.08;;;6.60;99.90;;;;;;4993998;28;20045;-76
2023/12/14 12:37:45;;;;;;;9.40;2.88;;;6.50;99.90;;;;;;4999682;28;20073;-76
2023/12/14 12:40:11;;;;;;;9.77;4.07;;;6.50;99.90;;;;;;5001594;28;20095;-76
2023/12/14 12:42:37;;;;;;;6.95;3.17;;;6.50;99.90;;;;;;4998541;28;20065;-76
2023/12/14 12:45:04;;;;;;;4.25;2.90;;;6.50;99.90;;;;;;4981997;28;20042;-76
2023/12/14 12:47:30;;;;;;;6.72;2.80;;;6.40;99.90;;;;;;4983407;28;20085;-76
2023/12/14 12:49:55;;;;;;;10.02;3.40;;;6.40;99.90;;;;;;5000676;28;20392;-76
2023/12/14 12:52:21;;;;;;;6.70;3.00;;;6.40;99.90;;;;;;4968762;28;20053;-76